sensor_id;sensor_type;location;lat;lon;timestamp;P1;durP1;ratioP1;P2;durP2;ratioP2
60847;SDS011;46681;47.696;9.140;2023-04-03T00:01:43;2.00;;;1.90;;
60847;SDS011;46681;47.696;9.140;2023-04-03T00:04:09;2.13;;;2.03;;
60847;SDS011;46681;47.696;9.140;2023-04-03T00:06:43;2.30;;;2.20;;
60847;SDS011;46681;47.696;9.140;2023-04-03T00:09:12;2.30;;;2.10;;
60847;SDS011;46681;47.696;9.140;2023-04-03T00:11:45;2.37;;;2.17;;
60847;SDS011;46681;47.696;9.140;2023-04-03T00:14:17;2.50;;;2.30;;
60847;SDS011;46681;47.696;9.140;2023-04-03T00:16:44;2.47;;;2.27;;
60847;SDS011;46681;47.696;9.140;2023-04-03T00:19:12;2.37;;;2.27;;
60847;SDS011;46681;47.696;9.140;2023-04-03T00:21:43;2.70;;;2.50;;
60847;SDS011;46681;47.696;9.140;2023-04-03T00:24:12;2.67;;;2.47;;
60847;SDS011;46681;47.696;9.140;2023-04-03T00:26:40;2.53;;;2.33;;
60847;SDS011;46681;47.696;9.140;2023-04-03T00:29:07;2.63;;;2.50;;
60847;SDS011;46681;47.696;9.140;2023-04-03T00:31:40;2.37;;;2.27;;
60847;SDS011;46681;47.696;9.140;2023-04-03T00:34:06;2.60;;;2.50;;
60847;SDS011;46681;47.696;9.140;2023-04-03T00:36:32;2.10;;;2.00;;
60847;SDS011;46681;47.696;9.140;2023-04-03T00:38:58;2.57;;;2.43;;
60847;SDS011;46681;47.696;9.140;2023-04-03T00:41:26;2.80;;;2.60;;
60847;SDS011;46681;47.696;9.140;2023-04-03T00:43:52;2.63;;;2.50;;
60847;SDS011;46681;47.696;9.140;2023-04-03T00:46:18;2.80;;;2.50;;
60847;SDS011;46681;47.696;9.140;2023-04-03T00:48:45;2.70;;;2.43;;
60847;SDS011;46681;47.696;9.140;2023-04-03T00:51:19;3.70;;;3.00;;
60847;SDS011;46681;47.696;9.140;2023-04-03T00:53:50;2.87;;;2.67;;
60847;SDS011;46681;47.696;9.140;2023-04-03T00:56:30;3.30;;;3.00;;
60847;SDS011;46681;47.696;9.140;2023-04-03T00:59:10;2.93;;;2.73;;
60847;SDS011;46681;47.696;9.140;2023-04-03T01:01:43;3.33;;;3.03;;
60847;SDS011;46681;47.696;9.140;2023-04-03T01:04:28;2.50;;;2.40;;
60847;SDS011;46681;47.696;9.140;2023-04-03T01:07:04;2.60;;;2.47;;
60847;SDS011;46681;47.696;9.140;2023-04-03T01:09:35;2.63;;;2.43;;
60847;SDS011;46681;47.696;9.140;2023-04-03T01:12:15;3.00;;;2.80;;
60847;SDS011;46681;47.696;9.140;2023-04-03T01:14:43;3.47;;;3.20;;
60847;SDS011;46681;47.696;9.140;2023-04-03T01:20:04;2.83;;;2.63;;
60847;SDS011;46681;47.696;9.140;2023-04-03T01:22:54;2.70;;;2.50;;
60847;SDS011;46681;47.696;9.140;2023-04-03T01:25:32;2.70;;;2.50;;
60847;SDS011;46681;47.696;9.140;2023-04-03T01:28:06;3.37;;;2.90;;
60847;SDS011;46681;47.696;9.140;2023-04-03T01:30:47;2.60;;;2.50;;
60847;SDS011;46681;47.696;9.140;2023-04-03T01:33:37;3.17;;;2.97;;
60847;SDS011;46681;47.696;9.140;2023-04-03T01:36:02;2.70;;;2.60;;
60847;SDS011;46681;47.696;9.140;2023-04-03T01:38:31;2.90;;;2.70;;
60847;SDS011;46681;47.696;9.140;2023-04-03T01:41:02;2.87;;;2.67;;
60847;SDS011;46681;47.696;9.140;2023-04-03T01:43:28;2.63;;;2.43;;
60847;SDS011;46681;47.696;9.140;2023-04-03T01:46:00;2.60;;;2.50;;
60847;SDS011;46681;47.696;9.140;2023-04-03T01:48:35;3.83;;;2.70;;
60847;SDS011;46681;47.696;9.140;2023-04-03T01:51:03;2.87;;;2.67;;
60847;SDS011;46681;47.696;9.140;2023-04-03T01:53:34;2.70;;;2.50;;
60847;SDS011;46681;47.696;9.140;2023-04-03T01:56:01;2.40;;;2.30;;
60847;SDS011;46681;47.696;9.140;2023-04-03T01:58:35;2.50;;;2.40;;
60847;SDS011;46681;47.696;9.140;2023-04-03T02:01:02;2.73;;;2.63;;
60847;SDS011;46681;47.696;9.140;2023-04-03T02:03:31;2.67;;;2.50;;
60847;SDS011;46681;47.696;9.140;2023-04-03T02:06:03;2.30;;;2.20;;
60847;SDS011;46681;47.696;9.140;2023-04-03T02:08:33;3.07;;;2.80;;
60847;SDS011;46681;47.696;9.140;2023-04-03T02:11:04;2.60;;;2.50;;
60847;SDS011;46681;47.696;9.140;2023-04-03T02:13:32;2.53;;;2.43;;
60847;SDS011;46681;47.696;9.140;2023-04-03T02:15:57;2.80;;;2.60;;
60847;SDS011;46681;47.696;9.140;2023-04-03T02:18:23;2.70;;;2.60;;
60847;SDS011;46681;47.696;9.140;2023-04-03T02:20:48;2.90;;;2.70;;
60847;SDS011;46681;47.696;9.140;2023-04-03T02:23:14;2.80;;;2.70;;
60847;SDS011;46681;47.696;9.140;2023-04-03T02:25:39;3.47;;;3.27;;
60847;SDS011;46681;47.696;9.140;2023-04-03T02:28:05;3.00;;;2.80;;
60847;SDS011;46681;47.696;9.140;2023-04-03T02:30:32;3.20;;;3.00;;
60847;SDS011;46681;47.696;9.140;2023-04-03T02:32:57;3.27;;;3.07;;
60847;SDS011;46681;47.696;9.140;2023-04-03T02:35:23;3.57;;;3.30;;
60847;SDS011;46681;47.696;9.140;2023-04-03T02:37:48;3.70;;;3.50;;
60847;SDS011;46681;47.696;9.140;2023-04-03T02:40:14;3.43;;;3.23;;
60847;SDS011;46681;47.696;9.140;2023-04-03T02:42:41;3.30;;;3.10;;
60847;SDS011;46681;47.696;9.140;2023-04-03T02:45:08;3.20;;;3.00;;
60847;SDS011;46681;47.696;9.140;2023-04-03T02:47:35;3.37;;;3.17;;
60847;SDS011;46681;47.696;9.140;2023-04-03T02:50:00;3.57;;;3.27;;
60847;SDS011;46681;47.696;9.140;2023-04-03T02:52:29;3.50;;;3.20;;
60847;SDS011;46681;47.696;9.140;2023-04-03T02:54:57;3.93;;;3.73;;
60847;SDS011;46681;47.696;9.140;2023-04-03T02:57:22;4.00;;;3.70;;
60847;SDS011;46681;47.696;9.140;2023-04-03T02:59:48;3.80;;;3.50;;
60847;SDS011;46681;47.696;9.140;2023-04-03T03:02:13;3.87;;;3.63;;
60847;SDS011;46681;47.696;9.140;2023-04-03T03:04:39;4.00;;;3.43;;
60847;SDS011;46681;47.696;9.140;2023-04-03T03:07:04;4.33;;;3.97;;
60847;SDS011;46681;47.696;9.140;2023-04-03T03:09:30;4.07;;;3.80;;
60847;SDS011;46681;47.696;9.140;2023-04-03T03:11:56;3.30;;;3.10;;
60847;SDS011;46681;47.696;9.140;2023-04-03T03:14:22;3.90;;;3.60;;
60847;SDS011;46681;47.696;9.140;2023-04-03T03:16:48;4.17;;;3.87;;
60847;SDS011;46681;47.696;9.140;2023-04-03T03:19:13;4.10;;;3.67;;
60847;SDS011;46681;47.696;9.140;2023-04-03T03:21:39;4.17;;;3.87;;
60847;SDS011;46681;47.696;9.140;2023-04-03T03:24:06;3.93;;;3.63;;
60847;SDS011;46681;47.696;9.140;2023-04-03T03:26:32;3.80;;;3.50;;
60847;SDS011;46681;47.696;9.140;2023-04-03T03:28:57;4.17;;;3.67;;
60847;SDS011;46681;47.696;9.140;2023-04-03T03:31:23;3.67;;;3.47;;
60847;SDS011;46681;47.696;9.140;2023-04-03T03:33:48;4.17;;;3.87;;
60847;SDS011;46681;47.696;9.140;2023-04-03T03:36:14;3.43;;;3.23;;
60847;SDS011;46681;47.696;9.140;2023-04-03T03:38:39;3.40;;;3.20;;
60847;SDS011;46681;47.696;9.140;2023-04-03T03:41:05;3.20;;;3.00;;
60847;SDS011;46681;47.696;9.140;2023-04-03T03:43:30;3.33;;;3.10;;
60847;SDS011;46681;47.696;9.140;2023-04-03T03:45:56;3.60;;;3.40;;
60847;SDS011;46681;47.696;9.140;2023-04-03T03:48:21;3.50;;;3.30;;
60847;SDS011;46681;47.696;9.140;2023-04-03T03:50:48;3.60;;;3.30;;
60847;SDS011;46681;47.696;9.140;2023-04-03T03:53:14;3.43;;;3.23;;
60847;SDS011;46681;47.696;9.140;2023-04-03T03:55:41;3.60;;;3.30;;
60847;SDS011;46681;47.696;9.140;2023-04-03T03:58:10;3.77;;;3.47;;
60847;SDS011;46681;47.696;9.140;2023-04-03T04:00:36;3.13;;;3.03;;
60847;SDS011;46681;47.696;9.140;2023-04-03T04:03:04;3.27;;;3.07;;
60847;SDS011;46681;47.696;9.140;2023-04-03T04:05:30;3.50;;;3.20;;
60847;SDS011;46681;47.696;9.140;2023-04-03T04:07:55;3.40;;;3.10;;
60847;SDS011;46681;47.696;9.140;2023-04-03T04:10:22;3.13;;;2.93;;
60847;SDS011;46681;47.696;9.140;2023-04-03T04:12:48;3.43;;;3.23;;
60847;SDS011;46681;47.696;9.140;2023-04-03T04:15:14;5.10;;;3.43;;
60847;SDS011;46681;47.696;9.140;2023-04-03T04:17:40;3.43;;;3.13;;
60847;SDS011;46681;47.696;9.140;2023-04-03T04:20:07;3.00;;;2.80;;
60847;SDS011;46681;47.696;9.140;2023-04-03T04:22:35;2.73;;;2.60;;
60847;SDS011;46681;47.696;9.140;2023-04-03T04:25:00;3.07;;;2.70;;
60847;SDS011;46681;47.696;9.140;2023-04-03T04:27:26;2.60;;;2.40;;
60847;SDS011;46681;47.696;9.140;2023-04-03T04:29:51;2.73;;;2.63;;
60847;SDS011;46681;47.696;9.140;2023-04-03T04:32:22;2.80;;;2.60;;
60847;SDS011;46681;47.696;9.140;2023-04-03T04:34:53;2.73;;;2.53;;
60847;SDS011;46681;47.696;9.140;2023-04-03T04:37:25;3.20;;;3.00;;
60847;SDS011;46681;47.696;9.140;2023-04-03T04:39:50;3.00;;;2.80;;
60847;SDS011;46681;47.696;9.140;2023-04-03T04:42:16;2.43;;;2.30;;
60847;SDS011;46681;47.696;9.140;2023-04-03T04:44:41;2.73;;;2.53;;
60847;SDS011;46681;47.696;9.140;2023-04-03T04:47:07;2.50;;;2.40;;
60847;SDS011;46681;47.696;9.140;2023-04-03T04:49:35;2.47;;;2.37;;
60847;SDS011;46681;47.696;9.140;2023-04-03T04:52:00;2.60;;;2.50;;
60847;SDS011;46681;47.696;9.140;2023-04-03T04:54:28;2.50;;;2.30;;
60847;SDS011;46681;47.696;9.140;2023-04-03T04:56:53;2.60;;;2.40;;
60847;SDS011;46681;47.696;9.140;2023-04-03T04:59:19;2.93;;;2.73;;
60847;SDS011;46681;47.696;9.140;2023-04-03T05:01:47;3.00;;;2.67;;
60847;SDS011;46681;47.696;9.140;2023-04-03T05:04:13;5.00;;;2.60;;
60847;SDS011;46681;47.696;9.140;2023-04-03T05:06:38;2.37;;;2.27;;
60847;SDS011;46681;47.696;9.140;2023-04-03T05:09:06;2.80;;;2.60;;
60847;SDS011;46681;47.696;9.140;2023-04-03T05:11:32;3.00;;;2.80;;
60847;SDS011;46681;47.696;9.140;2023-04-03T05:13:57;2.67;;;2.47;;
60847;SDS011;46681;47.696;9.140;2023-04-03T05:16:26;2.53;;;2.33;;
60847;SDS011;46681;47.696;9.140;2023-04-03T05:18:52;3.50;;;2.50;;
60847;SDS011;46681;47.696;9.140;2023-04-03T05:21:19;2.60;;;2.50;;
60847;SDS011;46681;47.696;9.140;2023-04-03T05:23:48;4.77;;;2.50;;
60847;SDS011;46681;47.696;9.140;2023-04-03T05:26:17;3.60;;;2.50;;
60847;SDS011;46681;47.696;9.140;2023-04-03T05:28:47;2.70;;;2.60;;
60847;SDS011;46681;47.696;9.140;2023-04-03T05:31:13;3.30;;;2.60;;
60847;SDS011;46681;47.696;9.140;2023-04-03T05:33:42;5.73;;;2.50;;
60847;SDS011;46681;47.696;9.140;2023-04-03T05:36:09;3.50;;;2.70;;
60847;SDS011;46681;47.696;9.140;2023-04-03T05:38:38;2.77;;;2.57;;
60847;SDS011;46681;47.696;9.140;2023-04-03T05:41:04;2.70;;;2.50;;
60847;SDS011;46681;47.696;9.140;2023-04-03T05:43:30;2.37;;;2.20;;
60847;SDS011;46681;47.696;9.140;2023-04-03T05:45:58;2.53;;;2.17;;
60847;SDS011;46681;47.696;9.140;2023-04-03T05:48:25;2.93;;;2.50;;
60847;SDS011;46681;47.696;9.140;2023-04-03T05:51:03;4.10;;;2.20;;
60847;SDS011;46681;47.696;9.140;2023-04-03T05:53:29;3.93;;;2.30;;
60847;SDS011;46681;47.696;9.140;2023-04-03T05:55:58;2.80;;;2.57;;
60847;SDS011;46681;47.696;9.140;2023-04-03T05:58:33;4.90;;;2.77;;
60847;SDS011;46681;47.696;9.140;2023-04-03T06:01:09;2.53;;;2.23;;
60847;SDS011;46681;47.696;9.140;2023-04-03T06:03:40;1.97;;;1.87;;
60847;SDS011;46681;47.696;9.140;2023-04-03T06:06:13;2.30;;;2.10;;
60847;SDS011;46681;47.696;9.140;2023-04-03T06:08:44;3.07;;;2.30;;
60847;SDS011;46681;47.696;9.140;2023-04-03T06:11:11;2.63;;;2.40;;
60847;SDS011;46681;47.696;9.140;2023-04-03T06:13:43;2.50;;;2.30;;
60847;SDS011;46681;47.696;9.140;2023-04-03T06:16:13;2.30;;;2.20;;
60847;SDS011;46681;47.696;9.140;2023-04-03T06:18:42;2.30;;;2.00;;
60847;SDS011;46681;47.696;9.140;2023-04-03T06:21:11;2.50;;;2.30;;
60847;SDS011;46681;47.696;9.140;2023-04-03T06:23:36;2.57;;;2.37;;
60847;SDS011;46681;47.696;9.140;2023-04-03T06:26:02;2.10;;;1.90;;
60847;SDS011;46681;47.696;9.140;2023-04-03T06:28:28;2.43;;;2.00;;
60847;SDS011;46681;47.696;9.140;2023-04-03T06:30:57;2.10;;;2.00;;
60847;SDS011;46681;47.696;9.140;2023-04-03T06:33:27;2.07;;;1.97;;
60847;SDS011;46681;47.696;9.140;2023-04-03T06:35:59;2.53;;;2.43;;
60847;SDS011;46681;47.696;9.140;2023-04-03T06:38:26;1.97;;;1.87;;
60847;SDS011;46681;47.696;9.140;2023-04-03T06:40:53;2.03;;;1.90;;
60847;SDS011;46681;47.696;9.140;2023-04-03T06:43:25;2.27;;;2.17;;
60847;SDS011;46681;47.696;9.140;2023-04-03T06:45:52;2.57;;;2.47;;
60847;SDS011;46681;47.696;9.140;2023-04-03T06:48:18;2.30;;;2.20;;
60847;SDS011;46681;47.696;9.140;2023-04-03T06:50:48;2.17;;;2.07;;
60847;SDS011;46681;47.696;9.140;2023-04-03T06:53:20;2.23;;;2.13;;
60847;SDS011;46681;47.696;9.140;2023-04-03T06:55:48;2.67;;;2.47;;
60847;SDS011;46681;47.696;9.140;2023-04-03T06:58:17;2.07;;;1.97;;
60847;SDS011;46681;47.696;9.140;2023-04-03T07:00:43;2.27;;;2.17;;
60847;SDS011;46681;47.696;9.140;2023-04-03T07:03:10;2.50;;;2.30;;
60847;SDS011;46681;47.696;9.140;2023-04-03T07:05:41;2.17;;;2.07;;
60847;SDS011;46681;47.696;9.140;2023-04-03T07:08:11;2.53;;;2.40;;
60847;SDS011;46681;47.696;9.140;2023-04-03T07:10:47;5.23;;;2.70;;
60847;SDS011;46681;47.696;9.140;2023-04-03T07:13:15;2.17;;;2.07;;
60847;SDS011;46681;47.696;9.140;2023-04-03T07:15:44;3.00;;;2.20;;
60847;SDS011;46681;47.696;9.140;2023-04-03T07:18:12;2.60;;;2.40;;
60847;SDS011;46681;47.696;9.140;2023-04-03T07:20:38;2.40;;;2.07;;
60847;SDS011;46681;47.696;9.140;2023-04-03T07:23:12;2.40;;;2.30;;
60847;SDS011;46681;47.696;9.140;2023-04-03T07:25:48;2.30;;;2.07;;
60847;SDS011;46681;47.696;9.140;2023-04-03T07:28:20;2.23;;;2.10;;
60847;SDS011;46681;47.696;9.140;2023-04-03T07:30:52;2.40;;;2.30;;
60847;SDS011;46681;47.696;9.140;2023-04-03T07:33:31;2.10;;;1.97;;
60847;SDS011;46681;47.696;9.140;2023-04-03T07:35:59;2.47;;;2.27;;
60847;SDS011;46681;47.696;9.140;2023-04-03T07:38:30;2.33;;;2.23;;
60847;SDS011;46681;47.696;9.140;2023-04-03T07:40:56;2.57;;;2.30;;
60847;SDS011;46681;47.696;9.140;2023-04-03T07:43:27;2.67;;;2.47;;
60847;SDS011;46681;47.696;9.140;2023-04-03T07:45:52;2.77;;;2.57;;
60847;SDS011;46681;47.696;9.140;2023-04-03T07:48:26;2.43;;;2.23;;
60847;SDS011;46681;47.696;9.140;2023-04-03T07:51:01;4.73;;;2.67;;
60847;SDS011;46681;47.696;9.140;2023-04-03T07:53:33;2.70;;;2.50;;
60847;SDS011;46681;47.696;9.140;2023-04-03T07:56:14;2.60;;;2.50;;
60847;SDS011;46681;47.696;9.140;2023-04-03T07:58:46;2.60;;;2.50;;
60847;SDS011;46681;47.696;9.140;2023-04-03T08:01:16;2.20;;;2.10;;
60847;SDS011;46681;47.696;9.140;2023-04-03T08:03:44;2.67;;;2.47;;
60847;SDS011;46681;47.696;9.140;2023-04-03T08:06:19;2.37;;;2.17;;
60847;SDS011;46681;47.696;9.140;2023-04-03T08:08:46;2.63;;;2.43;;
60847;SDS011;46681;47.696;9.140;2023-04-03T08:11:12;2.83;;;2.60;;
60847;SDS011;46681;47.696;9.140;2023-04-03T08:13:40;2.57;;;2.37;;
60847;SDS011;46681;47.696;9.140;2023-04-03T08:16:16;2.40;;;2.20;;
60847;SDS011;46681;47.696;9.140;2023-04-03T08:18:45;2.17;;;2.07;;
60847;SDS011;46681;47.696;9.140;2023-04-03T08:21:11;2.50;;;2.30;;
60847;SDS011;46681;47.696;9.140;2023-04-03T08:23:38;2.50;;;2.30;;
60847;SDS011;46681;47.696;9.140;2023-04-03T08:26:12;2.40;;;2.27;;
60847;SDS011;46681;47.696;9.140;2023-04-03T08:28:44;2.40;;;2.23;;
60847;SDS011;46681;47.696;9.140;2023-04-03T08:31:13;2.47;;;2.37;;
60847;SDS011;46681;47.696;9.140;2023-04-03T08:33:47;2.50;;;2.30;;
60847;SDS011;46681;47.696;9.140;2023-04-03T08:36:25;2.63;;;2.50;;
60847;SDS011;46681;47.696;9.140;2023-04-03T08:38:55;2.83;;;2.63;;
60847;SDS011;46681;47.696;9.140;2023-04-03T08:52:41;2.40;;;2.30;;
60847;SDS011;46681;47.696;9.140;2023-04-03T08:55:22;2.63;;;2.53;;
60847;SDS011;46681;47.696;9.140;2023-04-03T08:58:04;2.67;;;2.47;;
60847;SDS011;46681;47.696;9.140;2023-04-03T09:00:49;2.13;;;2.03;;
60847;SDS011;46681;47.696;9.140;2023-04-03T09:03:20;2.33;;;2.23;;
60847;SDS011;46681;47.696;9.140;2023-04-03T09:06:03;2.40;;;2.20;;
60847;SDS011;46681;47.696;9.140;2023-04-03T09:08:43;2.40;;;2.27;;
60847;SDS011;46681;47.696;9.140;2023-04-03T09:11:21;2.60;;;2.33;;
60847;SDS011;46681;47.696;9.140;2023-04-03T09:16:56;2.43;;;2.33;;
60847;SDS011;46681;47.696;9.140;2023-04-03T09:19:36;2.80;;;2.53;;
60847;SDS011;46681;47.696;9.140;2023-04-03T09:25:17;3.13;;;2.47;;
60847;SDS011;46681;47.696;9.140;2023-04-03T09:28:05;2.17;;;2.07;;
60847;SDS011;46681;47.696;9.140;2023-04-03T09:30:42;2.50;;;2.30;;
60847;SDS011;46681;47.696;9.140;2023-04-03T09:33:27;2.40;;;2.20;;
60847;SDS011;46681;47.696;9.140;2023-04-03T09:36:02;2.83;;;2.53;;
60847;SDS011;46681;47.696;9.140;2023-04-03T09:38:39;2.30;;;2.20;;
60847;SDS011;46681;47.696;9.140;2023-04-03T09:41:27;3.90;;;2.80;;
60847;SDS011;46681;47.696;9.140;2023-04-03T09:44:03;2.30;;;2.20;;
60847;SDS011;46681;47.696;9.140;2023-04-03T09:47:36;2.23;;;2.13;;
60847;SDS011;46681;47.696;9.140;2023-04-03T09:52:52;2.30;;;2.17;;
60847;SDS011;46681;47.696;9.140;2023-04-03T09:55:19;2.40;;;2.30;;
60847;SDS011;46681;47.696;9.140;2023-04-03T09:57:50;2.70;;;2.50;;
60847;SDS011;46681;47.696;9.140;2023-04-03T10:02:58;2.13;;;2.00;;
60847;SDS011;46681;47.696;9.140;2023-04-03T10:05:57;2.20;;;2.10;;
60847;SDS011;46681;47.696;9.140;2023-04-03T10:08:31;2.50;;;2.30;;
60847;SDS011;46681;47.696;9.140;2023-04-03T10:11:16;3.03;;;2.53;;
60847;SDS011;46681;47.696;9.140;2023-04-03T10:14:02;2.67;;;2.47;;
60847;SDS011;46681;47.696;9.140;2023-04-03T10:16:33;2.77;;;2.57;;
60847;SDS011;46681;47.696;9.140;2023-04-03T10:19:39;2.27;;;2.07;;
60847;SDS011;46681;47.696;9.140;2023-04-03T10:28:08;2.30;;;2.20;;
60847;SDS011;46681;47.696;9.140;2023-04-03T10:36:07;3.50;;;2.57;;
60847;SDS011;46681;47.696;9.140;2023-04-03T10:44:51;2.47;;;2.27;;
60847;SDS011;46681;47.696;9.140;2023-04-03T10:47:54;2.80;;;2.40;;
60847;SDS011;46681;47.696;9.140;2023-04-03T10:53:26;2.50;;;2.30;;
60847;SDS011;46681;47.696;9.140;2023-04-03T10:58:48;3.10;;;2.20;;
60847;SDS011;46681;47.696;9.140;2023-04-03T11:01:32;2.50;;;2.20;;
60847;SDS011;46681;47.696;9.140;2023-04-03T11:04:09;2.10;;;2.00;;
60847;SDS011;46681;47.696;9.140;2023-04-03T11:06:54;2.63;;;2.30;;
60847;SDS011;46681;47.696;9.140;2023-04-03T11:09:31;2.27;;;2.17;;
60847;SDS011;46681;47.696;9.140;2023-04-03T11:12:11;2.77;;;2.23;;
60847;SDS011;46681;47.696;9.140;2023-04-03T11:15:18;2.80;;;2.60;;
60847;SDS011;46681;47.696;9.140;2023-04-03T11:18:02;3.97;;;2.40;;
60847;SDS011;46681;47.696;9.140;2023-04-03T11:20:53;2.50;;;2.30;;
60847;SDS011;46681;47.696;9.140;2023-04-03T11:23:52;2.10;;;2.00;;
60847;SDS011;46681;47.696;9.140;2023-04-03T11:26:35;2.77;;;2.30;;
60847;SDS011;46681;47.696;9.140;2023-04-03T11:29:11;1.97;;;1.87;;
60847;SDS011;46681;47.696;9.140;2023-04-03T11:32:29;2.03;;;1.93;;
60847;SDS011;46681;47.696;9.140;2023-04-03T11:34:53;2.20;;;2.10;;
60847;SDS011;46681;47.696;9.140;2023-04-03T11:37:39;2.30;;;2.20;;
60847;SDS011;46681;47.696;9.140;2023-04-03T11:40:21;2.00;;;1.90;;
60847;SDS011;46681;47.696;9.140;2023-04-03T11:46:05;2.30;;;2.10;;
60847;SDS011;46681;47.696;9.140;2023-04-03T11:48:43;2.50;;;2.30;;
60847;SDS011;46681;47.696;9.140;2023-04-03T12:21:20;2.33;;;2.10;;
60847;SDS011;46681;47.696;9.140;2023-04-03T12:47:27;2.20;;;1.90;;
60847;SDS011;46681;47.696;9.140;2023-04-03T12:50:00;2.20;;;2.10;;
60847;SDS011;46681;47.696;9.140;2023-04-03T12:52:30;2.20;;;2.00;;
60847;SDS011;46681;47.696;9.140;2023-04-03T12:55:28;2.03;;;1.87;;
60847;SDS011;46681;47.696;9.140;2023-04-03T12:57:54;2.30;;;2.10;;
60847;SDS011;46681;47.696;9.140;2023-04-03T13:00:28;2.13;;;2.00;;
60847;SDS011;46681;47.696;9.140;2023-04-03T13:03:39;1.87;;;1.77;;
60847;SDS011;46681;47.696;9.140;2023-04-03T13:12:13;1.87;;;1.77;;
60847;SDS011;46681;47.696;9.140;2023-04-03T13:17:46;1.83;;;1.73;;
60847;SDS011;46681;47.696;9.140;2023-04-03T13:20:18;2.00;;;1.90;;
60847;SDS011;46681;47.696;9.140;2023-04-03T13:23:04;1.93;;;1.73;;
60847;SDS011;46681;47.696;9.140;2023-04-03T13:25:33;1.77;;;1.67;;
60847;SDS011;46681;47.696;9.140;2023-04-03T13:28:21;2.47;;;2.10;;
60847;SDS011;46681;47.696;9.140;2023-04-03T13:34:02;1.90;;;1.80;;
60847;SDS011;46681;47.696;9.140;2023-04-03T13:36:46;3.07;;;1.73;;
60847;SDS011;46681;47.696;9.140;2023-04-03T13:39:35;2.20;;;2.10;;
60847;SDS011;46681;47.696;9.140;2023-04-03T13:42:39;2.30;;;2.00;;
60847;SDS011;46681;47.696;9.140;2023-04-03T13:45:36;2.23;;;2.00;;
60847;SDS011;46681;47.696;9.140;2023-04-03T13:48:18;3.03;;;2.03;;
60847;SDS011;46681;47.696;9.140;2023-04-03T13:53:22;2.33;;;2.03;;
60847;SDS011;46681;47.696;9.140;2023-04-03T13:59:21;2.67;;;2.30;;
60847;SDS011;46681;47.696;9.140;2023-04-03T14:10:39;2.27;;;2.10;;
60847;SDS011;46681;47.696;9.140;2023-04-03T14:19:33;2.30;;;1.60;;
60847;SDS011;46681;47.696;9.140;2023-04-03T14:22:26;3.20;;;2.37;;
60847;SDS011;46681;47.696;9.140;2023-04-03T14:25:08;2.87;;;1.87;;
60847;SDS011;46681;47.696;9.140;2023-04-03T14:28:06;1.70;;;1.60;;
60847;SDS011;46681;47.696;9.140;2023-04-03T14:30:50;2.03;;;1.83;;
60847;SDS011;46681;47.696;9.140;2023-04-03T14:33:24;2.10;;;2.00;;
60847;SDS011;46681;47.696;9.140;2023-04-03T14:35:55;2.07;;;1.97;;
60847;SDS011;46681;47.696;9.140;2023-04-03T14:38:34;1.77;;;1.67;;
60847;SDS011;46681;47.696;9.140;2023-04-03T14:41:03;2.07;;;1.97;;
60847;SDS011;46681;47.696;9.140;2023-04-03T14:43:34;2.10;;;2.00;;
60847;SDS011;46681;47.696;9.140;2023-04-03T14:49:26;2.00;;;1.80;;
60847;SDS011;46681;47.696;9.140;2023-04-03T14:52:03;2.83;;;1.50;;
60847;SDS011;46681;47.696;9.140;2023-04-03T14:54:35;1.80;;;1.70;;
60847;SDS011;46681;47.696;9.140;2023-04-03T15:00:20;1.90;;;1.73;;
60847;SDS011;46681;47.696;9.140;2023-04-03T15:02:54;2.03;;;1.77;;
60847;SDS011;46681;47.696;9.140;2023-04-03T15:05:43;2.17;;;1.67;;
60847;SDS011;46681;47.696;9.140;2023-04-03T15:11:21;2.20;;;1.80;;
60847;SDS011;46681;47.696;9.140;2023-04-03T15:13:55;2.47;;;2.00;;
60847;SDS011;46681;47.696;9.140;2023-04-03T15:16:24;1.70;;;1.60;;
60847;SDS011;46681;47.696;9.140;2023-04-03T15:19:07;2.13;;;1.80;;
60847;SDS011;46681;47.696;9.140;2023-04-03T15:21:37;1.70;;;1.60;;
60847;SDS011;46681;47.696;9.140;2023-04-03T15:24:10;3.07;;;1.70;;
60847;SDS011;46681;47.696;9.140;2023-04-03T15:26:44;2.33;;;2.00;;
60847;SDS011;46681;47.696;9.140;2023-04-03T15:29:09;2.10;;;2.00;;
60847;SDS011;46681;47.696;9.140;2023-04-03T15:31:36;2.00;;;1.90;;
60847;SDS011;46681;47.696;9.140;2023-04-03T15:34:05;2.23;;;1.70;;
60847;SDS011;46681;47.696;9.140;2023-04-03T15:36:38;4.70;;;2.00;;
60847;SDS011;46681;47.696;9.140;2023-04-03T15:39:04;2.00;;;1.80;;
60847;SDS011;46681;47.696;9.140;2023-04-03T15:41:31;1.90;;;1.80;;
60847;SDS011;46681;47.696;9.140;2023-04-03T15:44:06;1.80;;;1.70;;
60847;SDS011;46681;47.696;9.140;2023-04-03T15:46:38;2.33;;;1.73;;
60847;SDS011;46681;47.696;9.140;2023-04-03T15:49:12;2.47;;;2.10;;
60847;SDS011;46681;47.696;9.140;2023-04-03T15:51:41;1.93;;;1.83;;
60847;SDS011;46681;47.696;9.140;2023-04-03T15:54:16;2.73;;;1.93;;
60847;SDS011;46681;47.696;9.140;2023-04-03T15:56:42;2.20;;;1.97;;
60847;SDS011;46681;47.696;9.140;2023-04-03T15:59:10;2.10;;;2.00;;
60847;SDS011;46681;47.696;9.140;2023-04-03T16:01:40;1.90;;;1.80;;
60847;SDS011;46681;47.696;9.140;2023-04-03T16:04:07;1.73;;;1.63;;
60847;SDS011;46681;47.696;9.140;2023-04-03T16:06:33;2.00;;;1.90;;
60847;SDS011;46681;47.696;9.140;2023-04-03T16:09:10;2.00;;;1.90;;
60847;SDS011;46681;47.696;9.140;2023-04-03T16:11:39;1.93;;;1.80;;
60847;SDS011;46681;47.696;9.140;2023-04-03T16:14:07;1.60;;;1.50;;
60847;SDS011;46681;47.696;9.140;2023-04-03T16:16:35;1.93;;;1.83;;
60847;SDS011;46681;47.696;9.140;2023-04-03T16:19:06;1.90;;;1.70;;
60847;SDS011;46681;47.696;9.140;2023-04-03T16:21:39;2.07;;;1.97;;
60847;SDS011;46681;47.696;9.140;2023-04-03T16:24:09;1.90;;;1.70;;
60847;SDS011;46681;47.696;9.140;2023-04-03T16:26:45;1.97;;;1.87;;
60847;SDS011;46681;47.696;9.140;2023-04-03T16:29:12;2.20;;;2.10;;
60847;SDS011;46681;47.696;9.140;2023-04-03T16:31:43;2.00;;;1.90;;
60847;SDS011;46681;47.696;9.140;2023-04-03T16:34:11;1.80;;;1.70;;
60847;SDS011;46681;47.696;9.140;2023-04-03T16:36:43;1.90;;;1.80;;
60847;SDS011;46681;47.696;9.140;2023-04-03T16:39:12;3.13;;;2.10;;
60847;SDS011;46681;47.696;9.140;2023-04-03T16:41:43;2.03;;;1.93;;
60847;SDS011;46681;47.696;9.140;2023-04-03T16:44:15;1.90;;;1.70;;
60847;SDS011;46681;47.696;9.140;2023-04-03T16:46:41;2.27;;;2.10;;
60847;SDS011;46681;47.696;9.140;2023-04-03T16:49:12;1.97;;;1.87;;
60847;SDS011;46681;47.696;9.140;2023-04-03T16:51:50;2.40;;;2.20;;
60847;SDS011;46681;47.696;9.140;2023-04-03T16:54:17;1.93;;;1.83;;
60847;SDS011;46681;47.696;9.140;2023-04-03T16:56:43;2.90;;;2.10;;
60847;SDS011;46681;47.696;9.140;2023-04-03T16:59:09;2.13;;;2.00;;
60847;SDS011;46681;47.696;9.140;2023-04-03T17:01:35;2.03;;;1.93;;
60847;SDS011;46681;47.696;9.140;2023-04-03T17:04:02;2.70;;;1.80;;
60847;SDS011;46681;47.696;9.140;2023-04-03T17:06:40;5.13;;;2.20;;
60847;SDS011;46681;47.696;9.140;2023-04-03T17:09:08;2.00;;;1.90;;
60847;SDS011;46681;47.696;9.140;2023-04-03T17:11:34;1.93;;;1.80;;
60847;SDS011;46681;47.696;9.140;2023-04-03T17:14:08;1.80;;;1.70;;
60847;SDS011;46681;47.696;9.140;2023-04-03T17:16:37;2.30;;;2.10;;
60847;SDS011;46681;47.696;9.140;2023-04-03T17:19:07;1.97;;;1.87;;
60847;SDS011;46681;47.696;9.140;2023-04-03T17:21:35;1.90;;;1.80;;
60847;SDS011;46681;47.696;9.140;2023-04-03T17:24:04;1.90;;;1.80;;
60847;SDS011;46681;47.696;9.140;2023-04-03T17:26:36;1.83;;;1.73;;
60847;SDS011;46681;47.696;9.140;2023-04-03T17:29:03;2.30;;;2.00;;
60847;SDS011;46681;47.696;9.140;2023-04-03T17:31:30;2.30;;;2.10;;
60847;SDS011;46681;47.696;9.140;2023-04-03T17:33:57;2.47;;;1.87;;
60847;SDS011;46681;47.696;9.140;2023-04-03T17:36:23;2.23;;;2.03;;
60847;SDS011;46681;47.696;9.140;2023-04-03T17:38:51;2.47;;;2.27;;
60847;SDS011;46681;47.696;9.140;2023-04-03T17:41:17;2.00;;;1.90;;
60847;SDS011;46681;47.696;9.140;2023-04-03T17:43:43;2.17;;;1.97;;
60847;SDS011;46681;47.696;9.140;2023-04-03T17:46:11;2.00;;;1.90;;